Time,TemperatureF,DewpointF,PressureIn,WindDirection,WindDirectionDegrees,WindSpeedMPH,WindSpeedGustMPH,Humidity,HourlyPrecipIn,Conditions,Clouds,dailyrainin,SolarRadiationWatts/m^2,SoftwareType,DateUTC
2015-07-05 00:00:00,59.9,45.5,30.32,WNW,292,0.0,0.0,59,0.00,CLR,FEW,0.00,0.0,WeatherDisplay:10.37,2015-07-05 07:00:00,
2015-07-05 00:05:00,59.7,47.5,30.32,WNW,292,1.4,0.0,64,0.00,CLR,FEW,0.00,0.0,WeatherDisplay:10.37,2015-07-05 07:05:00,
2015-07-05 00:10:00,59.7,47.5,30.32,WNW,292,0.0,0.0,64,0.00,CLR,FEW,0.00,0.0,WeatherDisplay:10.37,2015-07-05 07:10:00,
2015-07-05 00:15:00,59.7,47.5,30.32,WNW,292,0.0,0.0,64,0.00,CLR,FEW,0.00,0.0,WeatherDisplay:10.37,2015-07-05 07:15:00,
2015-07-05 00:20:00,59.4,46.8,30.32,WNW,292,0.0,0.0,63,0.00,CLR,FEW,0.00,0.0,WeatherDisplay:10.37,2015-07-05 07:20:00,
2015-07-05 00:25:00,59.4,48.4,30.32,WNW,292,0.0,0.0,67,0.00,CLR,FEW,0.00,0.0,WeatherDisplay:10.37,2015-07-05 07:25:00,
2015-07-05 00:30:00,59.4,48.0,30.32,WNW,292,2.2,2.2,66,0.00,CLR,FEW,0.00,0.0,WeatherDisplay:10.37,2015-07-05 07:30:00,
2015-07-05 00:35:00,59.5,47.3,30.32,West,270,2.3,2.3,64,0.00,CLR,FEW,0.00,0.0,WeatherDisplay:10.37,2015-07-05 07:35:00,
2015-07-05 00:40:00,59.5,47.3,30.32,WSW,248,2.3,2.3,64,0.00,CLR,FEW,0.00,0.0,WeatherDisplay:10.37,2015-07-05 07:40:00,
2015-07-05 00:45:00,59.5,46.9,30.32,WNW,292,2.3,2.3,63,0.00,CLR,FEW,0.00,0.0,WeatherDisplay:10.37,2015-07-05 07:45:00,
2015-07-05 00:50:00,59.4,46.3,30.32,WNW,292,1.1,1.4,62,0.00,CLR,FEW,0.00,0.0,WeatherDisplay:10.37,2015-07-05 07:50:00,
2015-07-05 00:55:00,59.4,45.9,30.32,WNW,292,2.3,2.3,61,0.00,CLR,FEW,0.00,0.0,WeatherDisplay:10.37,2015-07-05 07:55:00,
2015-07-05 01:00:00,59.2,45.3,30.32,WNW,292,0.0,0.0,60,0.00,CLR,FEW,0.00,0.0,WeatherDisplay:10.37,2015-07-05 08:00:00,
2015-07-05 01:05:00,59.0,45.6,30.35,WNW,292,0.0,0.0,61,0.00,CLR,FEW,0.00,0.0,WeatherDisplay:10.37,2015-07-05 08:05:00,
2015-07-05 01:10:00,58.6,46.9,30.35,WNW,292,0.0,0.0,65,0.00,CLR,FEW,0.00,0.0,WeatherDisplay:10.37,2015-07-05 08:10:00,
2015-07-05 01:15:00,58.3,45.7,30.35,WNW,292,0.0,0.0,63,0.00,CLR,FEW,0.00,0.0,WeatherDisplay:10.37,2015-07-05 08:15:00,
2015-07-05 01:20:00,58.1,46.0,30.32,South,180,2.3,2.3,64,0.00,CLR,FEW,0.00,0.0,WeatherDisplay:10.37,2015-07-05 08:20:00,
2015-07-05 01:25:00,57.9,47.0,30.32,WNW,292,2.4,0.0,67,0.00,CLR,FEW,0.00,0.0,WeatherDisplay:10.37,2015-07-05 08:25:00,
2015-07-05 01:30:00,57.7,47.2,30.32,West,270,2.3,2.3,68,0.00,CLR,FEW,0.00,0.0,WeatherDisplay:10.37,2015-07-05 08:30:00,
2015-07-05 01:35:00,57.6,47.5,30.32,West,270,0.0,0.0,69,0.00,CLR,FEW,0.00,0.0,WeatherDisplay:10.37,2015-07-05 08:35:00,
2015-07-05 01:40:00,57.6,47.1,30.32,West,270,2.6,2.6,68,0.00,CLR,FEW,0.00,0.0,WeatherDisplay:10.37,2015-07-05 08:40:00,
2015-07-05 01:45:00,57.7,47.2,30.32,WNW,292,2.4,2.4,68,0.00,CLR,FEW,0.00,0.0,WeatherDisplay:10.37,2015-07-05 08:45:00,
2015-07-05 01:50:00,57.7,46.5,30.35,West,270,0.0,0.0,66,0.00,CLR,FEW,0.00,0.0,WeatherDisplay:10.37,2015-07-05 08:50:00,
2015-07-05 01:55:00,57.6,46.3,30.35,West,270,0.0,0.0,66,0.00,CLR,FEW,0.00,0.0,WeatherDisplay:10.37,2015-07-05 08:55:00,
2015-07-05 02:00:00,57.0,46.6,30.35,West,270,2.4,2.4,68,0.00,CLR,FEW,0.00,0.0,WeatherDisplay:10.37,2015-07-05 09:00:00,
2015-07-05 02:05:00,57.0,46.2,30.32,West,270,0.0,0.0,67,0.00,CLR,FEW,0.00,0.0,WeatherDisplay:10.37,2015-07-05 09:05:00,
2015-07-05 02:10:00,56.8,46.4,30.32,WNW,292,2.3,2.3,68,0.00,CLR,FEW,0.00,0.0,WeatherDisplay:10.37,2015-07-05 09:10:00,
2015-07-05 02:15:00,56.7,46.2,30.32,WNW,292,1.4,1.4,68,0.00,CLR,FEW,0.00,0.0,WeatherDisplay:10.37,2015-07-05 09:15:00,
2015-07-05 02:20:00,56.7,45.8,30.32,WNW,292,0.0,0.0,67,0.00,CLR,FEW,0.00,0.0,WeatherDisplay:10.37,2015-07-05 09:20:00,
2015-07-05 02:25:00,56.5,46.4,30.32,WNW,292,0.0,0.0,69,0.00,CLR,FEW,0.00,0.0,WeatherDisplay:10.37,2015-07-05 09:25:00,
2015-07-05 02:30:00,56.5,46.4,30.32,WNW,292,0.0,0.0,69,0.00,CLR,FEW,0.00,0.0,WeatherDisplay:10.37,2015-07-05 09:30:00,
2015-07-05 02:35:00,56.3,46.3,30.32,West,270,2.4,2.4,69,0.00,CLR,FEW,0.00,0.0,WeatherDisplay:10.37,2015-07-05 09:35:00,
2015-07-05 02:40:00,56.3,46.3,30.32,West,270,0.0,0.0,69,0.00,CLR,FEW,0.00,0.0,WeatherDisplay:10.37,2015-07-05 09:40:00,